sensor_id;sensor_type;location;lat;lon;timestamp;pressure;altitude;pressure_sealevel;temperature;humidity
15050;BME280;7622;42.724;23.250;2022-07-22T00:00:51;94784.91;;;23.64;97.63
15050;BME280;7622;42.724;23.250;2022-07-22T00:03:18;94778.50;;;23.47;98.19
15050;BME280;7622;42.724;23.250;2022-07-22T00:05:45;94775.94;;;23.40;99.14
15050;BME280;7622;42.724;23.250;2022-07-22T00:08:12;94783.19;;;23.27;100.00
15050;BME280;7622;42.724;23.250;2022-07-22T00:10:39;94782.03;;;23.23;100.00
15050;BME280;7622;42.724;23.250;2022-07-22T00:13:06;94788.19;;;22.92;100.00
15050;BME280;7622;42.724;23.250;2022-07-22T00:15:33;94787.53;;;22.96;100.00
15050;BME280;7622;42.724;23.250;2022-07-22T00:18:01;94781.19;;;22.72;100.00
15050;BME280;7622;42.724;23.250;2022-07-22T00:20:28;94711.63;;;21.96;100.00
15050;BME280;7622;42.724;23.250;2022-07-22T00:22:54;94776.38;;;22.31;100.00
15050;BME280;7622;42.724;23.250;2022-07-22T00:25:21;94787.13;;;22.36;100.00
15050;BME280;7622;42.724;23.250;2022-07-22T00:27:48;94781.50;;;22.26;100.00
15050;BME280;7622;42.724;23.250;2022-07-22T00:30:15;94775.06;;;22.09;100.00
15050;BME280;7622;42.724;23.250;2022-07-22T00:32:42;94772.59;;;22.08;100.00
15050;BME280;7622;42.724;23.250;2022-07-22T00:35:10;94777.00;;;22.20;100.00
15050;BME280;7622;42.724;23.250;2022-07-22T00:37:37;94776.44;;;22.18;100.00
15050;BME280;7622;42.724;23.250;2022-07-22T00:40:05;94786.41;;;22.16;100.00
15050;BME280;7622;42.724;23.250;2022-07-22T00:42:32;94781.56;;;22.07;100.00
15050;BME280;7622;42.724;23.250;2022-07-22T00:44:59;94778.47;;;22.16;100.00
15050;BME280;7622;42.724;23.250;2022-07-22T00:47:26;94788.91;;;22.11;100.00
15050;BME280;7622;42.724;23.250;2022-07-22T00:49:53;94787.63;;;22.14;100.00
15050;BME280;7622;42.724;23.250;2022-07-22T00:52:21;94779.16;;;22.05;100.00
15050;BME280;7622;42.724;23.250;2022-07-22T00:54:49;94787.97;;;22.30;100.00
15050;BME280;7622;42.724;23.250;2022-07-22T00:57:16;94792.06;;;22.26;100.00
15050;BME280;7622;42.724;23.250;2022-07-22T00:59:43;94790.53;;;22.12;100.00
15050;BME280;7622;42.724;23.250;2022-07-22T01:02:10;94773.91;;;21.98;100.00
15050;BME280;7622;42.724;23.250;2022-07-22T01:04:37;94795.03;;;22.05;100.00
15050;BME280;7622;42.724;23.250;2022-07-22T01:07:04;94793.81;;;22.01;100.00
15050;BME280;7622;42.724;23.250;2022-07-22T01:09:32;94797.31;;;21.82;100.00
15050;BME280;7622;42.724;23.250;2022-07-22T01:11:59;94790.44;;;21.68;100.00
15050;BME280;7622;42.724;23.250;2022-07-22T01:14:26;94788.66;;;21.61;100.00
15050;BME280;7622;42.724;23.250;2022-07-22T01:16:53;94783.38;;;21.55;100.00
15050;BME280;7622;42.724;23.250;2022-07-22T01:19:20;94787.41;;;21.57;100.00
15050;BME280;7622;42.724;23.250;2022-07-22T01:21:48;94782.56;;;21.54;100.00
15050;BME280;7622;42.724;23.250;2022-07-22T01:24:15;94785.38;;;21.66;100.00
15050;BME280;7622;42.724;23.250;2022-07-22T01:26:42;94793.50;;;21.65;100.00
15050;BME280;7622;42.724;23.250;2022-07-22T01:29:08;94796.38;;;21.63;100.00
15050;BME280;7622;42.724;23.250;2022-07-22T01:31:35;94785.97;;;21.68;100.00
15050;BME280;7622;42.724;23.250;2022-07-22T01:34:02;94796.97;;;21.58;100.00
15050;BME280;7622;42.724;23.250;2022-07-22T01:36:29;94797.59;;;21.60;100.00
15050;BME280;7622;42.724;23.250;2022-07-22T01:38:57;94799.84;;;21.57;100.00
15050;BME280;7622;42.724;23.250;2022-07-22T01:41:24;94792.91;;;21.63;100.00
15050;BME280;7622;42.724;23.250;2022-07-22T01:43:51;94743.97;;;21.34;100.00
15050;BME280;7622;42.724;23.250;2022-07-22T01:46:17;94791.53;;;21.40;100.00
15050;BME280;7622;42.724;23.250;2022-07-22T01:48:44;94781.94;;;21.52;100.00
15050;BME280;7622;42.724;23.250;2022-07-22T01:51:11;94792.09;;;21.62;100.00
15050;BME280;7622;42.724;23.250;2022-07-22T01:53:38;94789.47;;;21.55;100.00
15050;BME280;7622;42.724;23.250;2022-07-22T01:56:07;94794.59;;;21.50;100.00
15050;BME280;7622;42.724;23.250;2022-07-22T01:58:34;94800.09;;;21.42;100.00
15050;BME280;7622;42.724;23.250;2022-07-22T02:01:00;94794.59;;;21.37;100.00
15050;BME280;7622;42.724;23.250;2022-07-22T02:03:27;94797.44;;;21.03;100.00
15050;BME280;7622;42.724;23.250;2022-07-22T02:05:54;94802.94;;;21.08;100.00
15050;BME280;7622;42.724;23.250;2022-07-22T02:08:21;94806.19;;;20.77;100.00
15050;BME280;7622;42.724;23.250;2022-07-22T02:10:48;94813.06;;;20.58;100.00
15050;BME280;7622;42.724;23.250;2022-07-22T02:13:16;94809.38;;;20.33;100.00
15050;BME280;7622;42.724;23.250;2022-07-22T02:15:43;94811.22;;;20.39;100.00
15050;BME280;7622;42.724;23.250;2022-07-22T02:18:11;94820.22;;;20.03;100.00
15050;BME280;7622;42.724;23.250;2022-07-22T02:20:37;94816.16;;;20.08;100.00
15050;BME280;7622;42.724;23.250;2022-07-22T02:23:05;94819.38;;;19.96;100.00
15050;BME280;7622;42.724;23.250;2022-07-22T02:25:32;94809.78;;;19.82;100.00
15050;BME280;7622;42.724;23.250;2022-07-22T02:27:59;94822.91;;;19.69;100.00
15050;BME280;7622;42.724;23.250;2022-07-22T02:30:27;94819.16;;;19.91;100.00
15050;BME280;7622;42.724;23.250;2022-07-22T02:32:54;94811.94;;;19.72;100.00
15050;BME280;7622;42.724;23.250;2022-07-22T02:35:21;94807.94;;;19.76;100.00
15050;BME280;7622;42.724;23.250;2022-07-22T02:37:48;94813.59;;;19.73;100.00
15050;BME280;7622;42.724;23.250;2022-07-22T02:40:15;94807.78;;;19.84;100.00
15050;BME280;7622;42.724;23.250;2022-07-22T02:42:42;94803.44;;;19.70;100.00
15050;BME280;7622;42.724;23.250;2022-07-22T02:45:09;94804.28;;;19.77;100.00
15050;BME280;7622;42.724;23.250;2022-07-22T02:47:46;94805.53;;;19.88;100.00
15050;BME280;7622;42.724;23.250;2022-07-22T02:50:13;94812.88;;;19.99;100.00
15050;BME280;7622;42.724;23.250;2022-07-22T02:52:39;94809.13;;;19.74;100.00
15050;BME280;7622;42.724;23.250;2022-07-22T02:55:07;94801.69;;;19.84;100.00
15050;BME280;7622;42.724;23.250;2022-07-22T02:57:34;94807.78;;;19.91;100.00
15050;BME280;7622;42.724;23.250;2022-07-22T03:00:00;94814.09;;;19.96;100.00
15050;BME280;7622;42.724;23.250;2022-07-22T03:02:27;94810.91;;;20.14;100.00
15050;BME280;7622;42.724;23.250;2022-07-22T03:04:55;94807.28;;;20.22;100.00
15050;BME280;7622;42.724;23.250;2022-07-22T03:07:22;94804.63;;;20.22;100.00
15050;BME280;7622;42.724;23.250;2022-07-22T03:09:49;94803.69;;;20.36;100.00
15050;BME280;7622;42.724;23.250;2022-07-22T03:12:16;94796.19;;;20.33;100.00
15050;BME280;7622;42.724;23.250;2022-07-22T03:14:42;94804.88;;;20.33;100.00
15050;BME280;7622;42.724;23.250;2022-07-22T03:17:09;94806.94;;;20.38;100.00
15050;BME280;7622;42.724;23.250;2022-07-22T03:19:36;94814.25;;;20.36;100.00
15050;BME280;7622;42.724;23.250;2022-07-22T03:22:04;94811.44;;;20.44;100.00
15050;BME280;7622;42.724;23.250;2022-07-22T03:24:31;94807.59;;;20.53;100.00
15050;BME280;7622;42.724;23.250;2022-07-22T03:26:57;94810.63;;;20.63;100.00
15050;BME280;7622;42.724;23.250;2022-07-22T03:29:24;94810.38;;;20.32;100.00
15050;BME280;7622;42.724;23.250;2022-07-22T03:31:51;94806.28;;;20.29;100.00
15050;BME280;7622;42.724;23.250;2022-07-22T03:34:18;94808.78;;;20.44;100.00
15050;BME280;7622;42.724;23.250;2022-07-22T03:36:44;94813.66;;;20.47;100.00
15050;BME280;7622;42.724;23.250;2022-07-22T03:39:13;94811.00;;;20.47;100.00
15050;BME280;7622;42.724;23.250;2022-07-22T03:41:39;94812.50;;;20.09;100.00
15050;BME280;7622;42.724;23.250;2022-07-22T03:44:06;94816.22;;;20.27;100.00
15050;BME280;7622;42.724;23.250;2022-07-22T03:46:33;94823.00;;;20.50;100.00
15050;BME280;7622;42.724;23.250;2022-07-22T03:48:59;94818.38;;;20.78;100.00
15050;BME280;7622;42.724;23.250;2022-07-22T03:51:26;94818.38;;;20.91;100.00
15050;BME280;7622;42.724;23.250;2022-07-22T03:53:53;94830.78;;;20.91;100.00
15050;BME280;7622;42.724;23.250;2022-07-22T03:56:21;94828.31;;;20.82;100.00
15050;BME280;7622;42.724;23.250;2022-07-22T03:58:48;94828.94;;;20.78;100.00
15050;BME280;7622;42.724;23.250;2022-07-22T04:01:14;94828.94;;;20.98;100.00
15050;BME280;7622;42.724;23.250;2022-07-22T04:03:41;94832.59;;;21.10;100.00
15050;BME280;7622;42.724;23.250;2022-07-22T04:06:08;94829.38;;;21.01;100.00
15050;BME280;7622;42.724;23.250;2022-07-22T04:08:35;94837.91;;;21.49;100.00
15050;BME280;7622;42.724;23.250;2022-07-22T04:11:02;94841.75;;;21.53;100.00
15050;BME280;7622;42.724;23.250;2022-07-22T04:13:30;94845.44;;;21.33;100.00
15050;BME280;7622;42.724;23.250;2022-07-22T04:15:57;94839.13;;;21.34;100.00
15050;BME280;7622;42.724;23.250;2022-07-22T04:18:23;94828.13;;;21.56;100.00
15050;BME280;7622;42.724;23.250;2022-07-22T04:20:50;94847.44;;;21.64;100.00
15050;BME280;7622;42.724;23.250;2022-07-22T04:23:17;94840.47;;;21.76;100.00
15050;BME280;7622;42.724;23.250;2022-07-22T04:25:44;94842.69;;;21.92;100.00
15050;BME280;7622;42.724;23.250;2022-07-22T04:28:11;94850.69;;;22.30;100.00
15050;BME280;7622;42.724;23.250;2022-07-22T04:30:40;94849.53;;;22.57;100.00
15050;BME280;7622;42.724;23.250;2022-07-22T04:33:07;94859.47;;;22.62;100.00
15050;BME280;7622;42.724;23.250;2022-07-22T04:35:34;94853.56;;;22.66;100.00
15050;BME280;7622;42.724;23.250;2022-07-22T04:38:00;94838.63;;;22.78;100.00
15050;BME280;7622;42.724;23.250;2022-07-22T04:40:27;94853.75;;;23.28;100.00
15050;BME280;7622;42.724;23.250;2022-07-22T04:42:54;94855.91;;;23.62;100.00
15050;BME280;7622;42.724;23.250;2022-07-22T04:45:21;94858.47;;;24.30;97.57
15050;BME280;7622;42.724;23.250;2022-07-22T04:47:49;94859.63;;;24.16;97.67
15050;BME280;7622;42.724;23.250;2022-07-22T04:50:16;94863.53;;;24.80;93.20
15050;BME280;7622;42.724;23.250;2022-07-22T04:52:42;94866.22;;;25.21;89.30
15050;BME280;7622;42.724;23.250;2022-07-22T04:55:09;94862.53;;;25.22;89.29
15050;BME280;7622;42.724;23.250;2022-07-22T04:57:36;94861.75;;;25.80;84.33
15050;BME280;7622;42.724;23.250;2022-07-22T05:00:03;94868.56;;;25.41;85.49
15050;BME280;7622;42.724;23.250;2022-07-22T05:02:30;94869.09;;;25.31;88.03
15050;BME280;7622;42.724;23.250;2022-07-22T05:04:59;94865.44;;;24.91;90.87
15050;BME280;7622;42.724;23.250;2022-07-22T05:07:26;94863.50;;;24.98;90.76
15050;BME280;7622;42.724;23.250;2022-07-22T05:09:53;94864.25;;;25.40;88.82
15050;BME280;7622;42.724;23.250;2022-07-22T05:12:20;94866.94;;;25.40;88.67
15050;BME280;7622;42.724;23.250;2022-07-22T05:14:46;94859.69;;;25.82;87.31
15050;BME280;7622;42.724;23.250;2022-07-22T05:17:13;94868.13;;;26.54;81.66
15050;BME280;7622;42.724;23.250;2022-07-22T05:19:40;94872.09;;;27.25;76.81
15050;BME280;7622;42.724;23.250;2022-07-22T05:22:08;94872.47;;;27.45;74.13
15050;BME280;7622;42.724;23.250;2022-07-22T05:24:36;94874.91;;;27.63;72.57
15050;BME280;7622;42.724;23.250;2022-07-22T05:27:03;94880.06;;;27.87;70.91
15050;BME280;7622;42.724;23.250;2022-07-22T05:29:29;94878.28;;;28.31;68.08
15050;BME280;7622;42.724;23.250;2022-07-22T05:31:56;94879.50;;;28.67;65.64
15050;BME280;7622;42.724;23.250;2022-07-22T05:34:23;94884.91;;;28.50;66.51
15050;BME280;7622;42.724;23.250;2022-07-22T05:36:50;94862.47;;;28.73;64.16
15050;BME280;7622;42.724;23.250;2022-07-22T05:39:18;94886.69;;;28.61;62.45
15050;BME280;7622;42.724;23.250;2022-07-22T05:41:45;94879.50;;;28.23;65.02
15050;BME280;7622;42.724;23.250;2022-07-22T05:44:12;94876.03;;;28.88;60.46
15050;BME280;7622;42.724;23.250;2022-07-22T05:46:38;94883.19;;;28.60;62.34
15050;BME280;7622;42.724;23.250;2022-07-22T05:49:05;94889.78;;;28.96;61.24
15050;BME280;7622;42.724;23.250;2022-07-22T05:51:32;94861.25;;;29.66;57.80
15050;BME280;7622;42.724;23.250;2022-07-22T05:54:00;94881.38;;;30.10;56.88
15050;BME280;7622;42.724;23.250;2022-07-22T05:56:29;94863.25;;;29.86;57.75
15050;BME280;7622;42.724;23.250;2022-07-22T05:58:55;94875.75;;;29.75;56.09
15050;BME280;7622;42.724;23.250;2022-07-22T06:01:22;94879.22;;;30.07;55.91
15050;BME280;7622;42.724;23.250;2022-07-22T06:03:49;94877.94;;;29.83;55.14
15050;BME280;7622;42.724;23.250;2022-07-22T06:06:16;94871.50;;;29.79;54.49
15050;BME280;7622;42.724;23.250;2022-07-22T06:08:42;94868.81;;;29.79;54.81
15050;BME280;7622;42.724;23.250;2022-07-22T06:11:09;94876.00;;;30.10;53.81
15050;BME280;7622;42.724;23.250;2022-07-22T06:13:37;94874.66;;;30.08;53.96
15050;BME280;7622;42.724;23.250;2022-07-22T06:16:05;94876.22;;;30.51;53.42
15050;BME280;7622;42.724;23.250;2022-07-22T06:18:32;94879.38;;;30.43;53.29
15050;BME280;7622;42.724;23.250;2022-07-22T06:20:59;94877.47;;;30.33;53.49
15050;BME280;7622;42.724;23.250;2022-07-22T06:23:26;94880.31;;;30.11;54.95
15050;BME280;7622;42.724;23.250;2022-07-22T06:25:53;94876.69;;;30.38;54.62
15050;BME280;7622;42.724;23.250;2022-07-22T06:28:19;94878.84;;;30.41;54.90
15050;BME280;7622;42.724;23.250;2022-07-22T06:30:47;94876.84;;;30.73;54.76
15050;BME280;7622;42.724;23.250;2022-07-22T06:33:14;94880.53;;;30.57;54.55
15050;BME280;7622;42.724;23.250;2022-07-22T06:35:41;94884.41;;;30.81;53.39
15050;BME280;7622;42.724;23.250;2022-07-22T06:38:08;94884.81;;;31.46;51.29
15050;BME280;7622;42.724;23.250;2022-07-22T06:40:35;94887.75;;;31.44;51.21
15050;BME280;7622;42.724;23.250;2022-07-22T06:43:02;94890.44;;;31.39;51.43
15050;BME280;7622;42.724;23.250;2022-07-22T06:45:30;94889.06;;;31.21;52.95
15050;BME280;7622;42.724;23.250;2022-07-22T06:47:58;94882.91;;;31.36;53.63
15050;BME280;7622;42.724;23.250;2022-07-22T06:50:25;94885.09;;;31.80;52.44
15050;BME280;7622;42.724;23.250;2022-07-22T06:52:52;94888.75;;;32.50;50.02
15050;BME280;7622;42.724;23.250;2022-07-22T06:55:19;94878.75;;;32.55;48.63
15050;BME280;7622;42.724;23.250;2022-07-22T06:57:46;94879.53;;;32.61;47.92
15050;BME280;7622;42.724;23.250;2022-07-22T07:00:14;94874.19;;;32.51;48.30
15050;BME280;7622;42.724;23.250;2022-07-22T07:02:40;94879.31;;;32.47;48.26
15050;BME280;7622;42.724;23.250;2022-07-22T07:05:09;94820.88;;;31.17;51.41
15050;BME280;7622;42.724;23.250;2022-07-22T07:07:36;94880.78;;;31.84;51.18
15050;BME280;7622;42.724;23.250;2022-07-22T07:10:03;94864.03;;;32.32;49.37
15050;BME280;7622;42.724;23.250;2022-07-22T07:12:30;94886.41;;;32.97;47.49
15050;BME280;7622;42.724;23.250;2022-07-22T07:14:57;94891.59;;;33.33;46.18
15050;BME280;7622;42.724;23.250;2022-07-22T07:17:23;94889.09;;;32.92;46.21
15050;BME280;7622;42.724;23.250;2022-07-22T07:19:50;94887.28;;;32.82;47.30
15050;BME280;7622;42.724;23.250;2022-07-22T07:22:18;94889.91;;;32.93;45.96
15050;BME280;7622;42.724;23.250;2022-07-22T07:24:45;94888.09;;;32.83;45.80
15050;BME280;7622;42.724;23.250;2022-07-22T07:27:12;94886.09;;;33.48;43.93
15050;BME280;7622;42.724;23.250;2022-07-22T07:29:38;94887.81;;;33.34;44.62
15050;BME280;7622;42.724;23.250;2022-07-22T07:32:05;94889.31;;;33.84;43.52
15050;BME280;7622;42.724;23.250;2022-07-22T07:34:32;94886.81;;;33.58;43.59
15050;BME280;7622;42.724;23.250;2022-07-22T07:36:59;94884.94;;;33.59;43.38
15050;BME280;7622;42.724;23.250;2022-07-22T07:39:27;94881.50;;;33.82;43.18
15050;BME280;7622;42.724;23.250;2022-07-22T07:41:54;94882.19;;;33.98;42.42
15050;BME280;7622;42.724;23.250;2022-07-22T07:44:20;94876.72;;;34.08;42.98
15050;BME280;7622;42.724;23.250;2022-07-22T07:46:47;94886.00;;;34.21;42.47
15050;BME280;7622;42.724;23.250;2022-07-22T07:49:14;94874.50;;;34.39;42.04
15050;BME280;7622;42.724;23.250;2022-07-22T07:51:41;94879.41;;;33.79;42.84
15050;BME280;7622;42.724;23.250;2022-07-22T07:54:08;94885.81;;;34.41;42.13
15050;BME280;7622;42.724;23.250;2022-07-22T07:56:36;94881.56;;;34.83;41.84
15050;BME280;7622;42.724;23.250;2022-07-22T07:59:02;94880.84;;;34.96;38.50
15050;BME280;7622;42.724;23.250;2022-07-22T08:01:29;94879.84;;;34.92;40.04
15050;BME280;7622;42.724;23.250;2022-07-22T08:03:56;94881.31;;;35.22;39.21
15050;BME280;7622;42.724;23.250;2022-07-22T08:06:23;94881.63;;;35.90;38.12
15050;BME280;7622;42.724;23.250;2022-07-22T08:08:49;94882.59;;;35.62;37.99
15050;BME280;7622;42.724;23.250;2022-07-22T08:11:17;94883.78;;;35.74;37.65
15050;BME280;7622;42.724;23.250;2022-07-22T08:13:46;94884.28;;;36.09;36.28
15050;BME280;7622;42.724;23.250;2022-07-22T08:16:12;94889.03;;;35.66;36.16
15050;BME280;7622;42.724;23.250;2022-07-22T08:18:39;94891.72;;;35.84;36.08
15050;BME280;7622;42.724;23.250;2022-07-22T08:21:06;94883.41;;;35.81;35.72
15050;BME280;7622;42.724;23.250;2022-07-22T08:23:34;94881.72;;;35.85;36.34
15050;BME280;7622;42.724;23.250;2022-07-22T08:26:01;94883.53;;;36.03;35.63
15050;BME280;7622;42.724;23.250;2022-07-22T08:28:28;94891.78;;;36.58;35.38
15050;BME280;7622;42.724;23.250;2022-07-22T08:30:56;94882.22;;;36.19;35.10
15050;BME280;7622;42.724;23.250;2022-07-22T08:33:23;94889.06;;;36.85;34.27
15050;BME280;7622;42.724;23.250;2022-07-22T08:35:49;94878.91;;;37.04;34.01
15050;BME280;7622;42.724;23.250;2022-07-22T08:38:16;94888.97;;;36.63;34.61
15050;BME280;7622;42.724;23.250;2022-07-22T08:40:43;94890.66;;;36.73;33.83
15050;BME280;7622;42.724;23.250;2022-07-22T08:43:10;94880.19;;;37.07;33.98
15050;BME280;7622;42.724;23.250;2022-07-22T08:45:38;94886.81;;;37.01;33.26
15050;BME280;7622;42.724;23.250;2022-07-22T08:48:07;94883.72;;;36.25;34.31
15050;BME280;7622;42.724;23.250;2022-07-22T08:50:33;94884.84;;;36.79;34.44
15050;BME280;7622;42.724;23.250;2022-07-22T08:53:00;94892.91;;;37.56;33.53
15050;BME280;7622;42.724;23.250;2022-07-22T08:55:27;94888.72;;;37.50;33.79
15050;BME280;7622;42.724;23.250;2022-07-22T08:57:54;94891.03;;;38.01;33.36
15050;BME280;7622;42.724;23.250;2022-07-22T09:00:22;94892.44;;;38.21;32.85
15050;BME280;7622;42.724;23.250;2022-07-22T09:02:49;94890.63;;;37.85;32.88
15050;BME280;7622;42.724;23.250;2022-07-22T09:05:18;94878.03;;;38.12;33.04
15050;BME280;7622;42.724;23.250;2022-07-22T09:07:45;94887.28;;;38.11;33.00
15050;BME280;7622;42.724;23.250;2022-07-22T09:10:14;94890.22;;;38.23;32.86
15050;BME280;7622;42.724;23.250;2022-07-22T09:12:52;94873.00;;;37.74;33.07
15050;BME280;7622;42.724;23.250;2022-07-22T09:15:26;94894.25;;;37.81;33.06
15050;BME280;7622;42.724;23.250;2022-07-22T09:17:53;94895.78;;;37.96;32.78
15050;BME280;7622;42.724;23.250;2022-07-22T09:20:23;94888.53;;;37.60;33.34
15050;BME280;7622;42.724;23.250;2022-07-22T09:22:53;94892.66;;;37.58;33.00
15050;BME280;7622;42.724;23.250;2022-07-22T09:25:27;94885.47;;;37.75;32.77
15050;BME280;7622;42.724;23.250;2022-07-22T09:27:55;94895.97;;;37.55;33.15
15050;BME280;7622;42.724;23.250;2022-07-22T09:30:24;94891.63;;;37.67;33.19
15050;BME280;7622;42.724;23.250;2022-07-22T09:32:53;94874.84;;;37.88;32.47
15050;BME280;7622;42.724;23.250;2022-07-22T09:35:23;94881.66;;;38.38;32.53
15050;BME280;7622;42.724;23.250;2022-07-22T09:37:53;94885.41;;;38.20;32.63
15050;BME280;7622;42.724;23.250;2022-07-22T09:40:22;94866.91;;;38.61;31.42
15050;BME280;7622;42.724;23.250;2022-07-22T09:42:51;94885.13;;;38.61;31.03
15050;BME280;7622;42.724;23.250;2022-07-22T09:45:20;94881.94;;;38.59;31.10
15050;BME280;7622;42.724;23.250;2022-07-22T09:47:48;94880.56;;;38.79;30.82
15050;BME280;7622;42.724;23.250;2022-07-22T09:50:20;94872.00;;;38.54;31.61
15050;BME280;7622;42.724;23.250;2022-07-22T09:52:50;94852.78;;;38.42;31.73
15050;BME280;7622;42.724;23.250;2022-07-22T09:55:18;94870.03;;;38.46;31.35
15050;BME280;7622;42.724;23.250;2022-07-22T09:57:46;94872.69;;;38.69;31.28
15050;BME280;7622;42.724;23.250;2022-07-22T10:00:15;94874.34;;;38.78;31.22
15050;BME280;7622;42.724;23.250;2022-07-22T10:02:46;94863.34;;;38.13;31.88
15050;BME280;7622;42.724;23.250;2022-07-22T10:05:15;94871.75;;;37.80;32.29
15050;BME280;7622;42.724;23.250;2022-07-22T10:07:43;94868.81;;;37.99;31.58
15050;BME280;7622;42.724;23.250;2022-07-22T10:10:12;94865.91;;;38.18;31.67
15050;BME280;7622;42.724;23.250;2022-07-22T10:12:40;94867.47;;;38.10;30.85
15050;BME280;7622;42.724;23.250;2022-07-22T10:15:09;94854.84;;;38.45;30.65
15050;BME280;7622;42.724;23.250;2022-07-22T10:17:38;94857.75;;;38.09;31.37
15050;BME280;7622;42.724;23.250;2022-07-22T10:20:06;94858.34;;;38.06;31.43
15050;BME280;7622;42.724;23.250;2022-07-22T10:22:51;94856.09;;;38.31;31.06
15050;BME280;7622;42.724;23.250;2022-07-22T10:25:20;94848.66;;;37.92;31.65
15050;BME280;7622;42.724;23.250;2022-07-22T10:27:50;94847.25;;;38.16;31.22
15050;BME280;7622;42.724;23.250;2022-07-22T10:30:19;94845.69;;;38.02;31.35
15050;BME280;7622;42.724;23.250;2022-07-22T10:33:01;94849.00;;;38.21;31.44
15050;BME280;7622;42.724;23.250;2022-07-22T10:35:28;94840.16;;;38.46;31.30
15050;BME280;7622;42.724;23.250;2022-07-22T10:37:58;94829.41;;;38.81;31.18
15050;BME280;7622;42.724;23.250;2022-07-22T10:40:28;94838.13;;;39.00;30.71
15050;BME280;7622;42.724;23.250;2022-07-22T10:43:11;94836.78;;;38.89;30.82
15050;BME280;7622;42.724;23.250;2022-07-22T10:45:40;94838.75;;;39.31;30.09
15050;BME280;7622;42.724;23.250;2022-07-22T10:48:10;94839.06;;;38.95;30.91
15050;BME280;7622;42.724;23.250;2022-07-22T10:51:04;94842.88;;;38.38;30.48
15050;BME280;7622;42.724;23.250;2022-07-22T10:53:46;94840.72;;;38.26;30.64
15050;BME280;7622;42.724;23.250;2022-07-22T10:56:16;94845.72;;;37.79;30.80
15050;BME280;7622;42.724;23.250;2022-07-22T10:58:49;94837.50;;;37.48;30.78
15050;BME280;7622;42.724;23.250;2022-07-22T11:01:19;94842.28;;;37.88;30.57
15050;BME280;7622;42.724;23.250;2022-07-22T11:03:47;94844.03;;;38.14;30.05
15050;BME280;7622;42.724;23.250;2022-07-22T11:06:20;94839.38;;;37.84;30.33
15050;BME280;7622;42.724;23.250;2022-07-22T11:08:51;94841.19;;;37.97;30.48
15050;BME280;7622;42.724;23.250;2022-07-22T11:11:31;94829.69;;;37.47;30.18
15050;BME280;7622;42.724;23.250;2022-07-22T11:13:58;94837.06;;;37.55;29.88
15050;BME280;7622;42.724;23.250;2022-07-22T11:16:26;94830.22;;;38.02;29.41
15050;BME280;7622;42.724;23.250;2022-07-22T11:18:58;94829.09;;;38.34;29.18
15050;BME280;7622;42.724;23.250;2022-07-22T11:21:26;94839.28;;;37.98;29.15
15050;BME280;7622;42.724;23.250;2022-07-22T11:23:55;94829.13;;;38.43;28.93
15050;BME280;7622;42.724;23.250;2022-07-22T11:26:26;94839.09;;;38.16;29.43
15050;BME280;7622;42.724;23.250;2022-07-22T11:28:58;94825.09;;;38.32;28.85
15050;BME280;7622;42.724;23.250;2022-07-22T11:31:25;94828.94;;;37.77;28.91
15050;BME280;7622;42.724;23.250;2022-07-22T11:34:04;94830.25;;;36.99;29.62
15050;BME280;7622;42.724;23.250;2022-07-22T11:36:31;94834.19;;;36.80;30.07
15050;BME280;7622;42.724;23.250;2022-07-22T11:38:58;94834.22;;;37.16;29.49
15050;BME280;7622;42.724;23.250;2022-07-22T11:41:28;94831.66;;;37.33;29.50
15050;BME280;7622;42.724;23.250;2022-07-22T11:43:55;94825.81;;;37.03;30.14
15050;BME280;7622;42.724;23.250;2022-07-22T11:46:22;94825.97;;;37.07;30.40
15050;BME280;7622;42.724;23.250;2022-07-22T11:48:51;94822.16;;;37.22;30.24
15050;BME280;7622;42.724;23.250;2022-07-22T11:51:18;94818.59;;;37.13;30.31
15050;BME280;7622;42.724;23.250;2022-07-22T11:53:45;94776.13;;;36.45;30.77
15050;BME280;7622;42.724;23.250;2022-07-22T11:56:12;94825.59;;;36.50;30.85
15050;BME280;7622;42.724;23.250;2022-07-22T11:58:42;94826.69;;;36.36;30.99
15050;BME280;7622;42.724;23.250;2022-07-22T12:01:12;94832.28;;;36.25;30.94
15050;BME280;7622;42.724;23.250;2022-07-22T12:03:41;94822.09;;;36.22;31.46
15050;BME280;7622;42.724;23.250;2022-07-22T12:06:12;94818.88;;;36.20;31.05
15050;BME280;7622;42.724;23.250;2022-07-22T12:08:40;94814.66;;;36.42;30.91
15050;BME280;7622;42.724;23.250;2022-07-22T12:11:09;94812.06;;;36.37;31.35
15050;BME280;7622;42.724;23.250;2022-07-22T12:13:42;94799.59;;;36.08;31.44
15050;BME280;7622;42.724;23.250;2022-07-22T12:16:24;94811.13;;;35.68;32.41
15050;BME280;7622;42.724;23.250;2022-07-22T12:18:56;94815.41;;;35.69;32.76
15050;BME280;7622;42.724;23.250;2022-07-22T12:21:24;94811.38;;;35.52;32.57
15050;BME280;7622;42.724;23.250;2022-07-22T12:23:57;94783.03;;;35.50;32.68
15050;BME280;7622;42.724;23.250;2022-07-22T12:26:38;94809.31;;;35.63;32.14
15050;BME280;7622;42.724;23.250;2022-07-22T12:29:19;94805.94;;;35.71;32.30
15050;BME280;7622;42.724;23.250;2022-07-22T12:31:47;94795.16;;;35.85;32.60
15050;BME280;7622;42.724;23.250;2022-07-22T12:34:15;94801.59;;;35.89;32.09
15050;BME280;7622;42.724;23.250;2022-07-22T12:36:44;94799.78;;;35.98;32.35
15050;BME280;7622;42.724;23.250;2022-07-22T12:39:15;94806.22;;;36.02;31.92
15050;BME280;7622;42.724;23.250;2022-07-22T12:41:48;94800.59;;;35.99;31.99
15050;BME280;7622;42.724;23.250;2022-07-22T12:44:18;94796.88;;;36.08;31.93
15050;BME280;7622;42.724;23.250;2022-07-22T12:46:47;94786.75;;;36.00;32.41
15050;BME280;7622;42.724;23.250;2022-07-22T12:49:16;94787.56;;;36.01;31.77
15050;BME280;7622;42.724;23.250;2022-07-22T12:52:08;94798.69;;;35.99;32.17
15050;BME280;7622;42.724;23.250;2022-07-22T12:54:36;94791.81;;;36.20;31.60
15050;BME280;7622;42.724;23.250;2022-07-22T12:57:03;94794.75;;;35.91;32.66
15050;BME280;7622;42.724;23.250;2022-07-22T12:59:31;94791.56;;;36.17;32.15
15050;BME280;7622;42.724;23.250;2022-07-22T13:01:58;94797.28;;;36.02;31.60